createdAt,value
2023-03-22T00:00:37.259Z,11.00
2023-03-22T00:03:14.814Z,11.00
2023-03-22T00:05:49.835Z,11.00
2023-03-22T00:08:25.051Z,10.90
2023-03-22T00:11:00.762Z,10.90
2023-03-22T00:13:36.788Z,10.80
2023-03-22T00:16:06.191Z,10.80
2023-03-22T00:18:42.761Z,10.80
2023-03-22T00:21:20.824Z,10.70
2023-03-22T00:23:50.933Z,10.70
2023-03-22T00:26:26.861Z,10.70
2023-03-22T00:29:01.582Z,10.70
2023-03-22T00:31:30.898Z,10.70
2023-03-22T00:34:07.500Z,10.60
2023-03-22T00:36:44.557Z,10.60
2023-03-22T00:39:13.082Z,10.50
2023-03-22T00:41:48.833Z,10.60
2023-03-22T00:44:23.845Z,10.50
2023-03-22T00:46:52.300Z,10.50
2023-03-22T00:49:28.594Z,10.50
2023-03-22T00:52:03.649Z,10.50
2023-03-22T00:54:32.168Z,10.50
2023-03-22T00:57:07.808Z,10.40
2023-03-22T00:59:38.537Z,10.40
2023-03-22T01:02:13.803Z,10.40
2023-03-22T01:04:52.668Z,10.40
2023-03-22T01:07:28.064Z,10.40
2023-03-22T01:10:09.598Z,10.40
2023-03-22T01:12:44.838Z,10.30
2023-03-22T01:15:13.878Z,10.30
2023-03-22T01:17:50.898Z,10.30
2023-03-22T01:20:27.657Z,10.30
2023-03-22T01:22:56.199Z,10.30
2023-03-22T01:25:31.527Z,10.20
2023-03-22T01:28:09.604Z,10.20
2023-03-22T01:30:40.156Z,10.20
2023-03-22T01:33:15.592Z,10.20
2023-03-22T01:35:52.649Z,10.20
2023-03-22T01:38:22.387Z,10.20
2023-03-22T01:40:57.569Z,10.20
2023-03-22T01:43:32.597Z,10.10
2023-03-22T01:46:01.421Z,10.10
2023-03-22T01:48:40.673Z,10.10
2023-03-22T01:51:13.558Z,10.10
2023-03-22T01:53:52.639Z,10.00
2023-03-22T01:56:29.893Z,10.10
2023-03-22T01:58:58.715Z,10.10
2023-03-22T02:01:33.969Z,10.00
2023-03-22T02:04:20.685Z,10.00
2023-03-22T02:06:58.181Z,10.00
2023-03-22T02:09:33.621Z,10.00
2023-03-22T02:12:13.609Z,10.00
2023-03-22T02:15:06.979Z,10.00
2023-03-22T02:17:46.960Z,10.00
2023-03-22T02:20:49.623Z,10.00
2023-03-22T02:24:03.937Z,10.00
2023-03-22T02:27:16.226Z,9.90
2023-03-22T02:29:59.640Z,9.90
2023-03-22T02:32:48.841Z,9.90
2023-03-22T02:35:48.088Z,9.90
2023-03-22T02:38:52.691Z,9.90
2023-03-22T02:41:35.933Z,9.80
2023-03-22T02:44:16.689Z,9.80
2023-03-22T02:46:48.703Z,9.80
2023-03-22T02:49:29.593Z,9.80
2023-03-22T02:52:02.991Z,9.80
2023-03-22T02:54:46.672Z,9.80
2023-03-22T02:57:21.470Z,9.70
2023-03-22T02:59:59.696Z,9.70
2023-03-22T03:02:30.020Z,9.70
2023-03-22T03:05:13.763Z,9.70
2023-03-22T03:07:52.957Z,9.70
2023-03-22T03:10:24.620Z,9.70
2023-03-22T03:12:59.700Z,9.70
2023-03-22T03:15:28.844Z,9.80
2023-03-22T03:18:34.999Z,9.80
2023-03-22T03:21:16.932Z,9.80
2023-03-22T03:23:54.188Z,9.80
2023-03-22T03:26:38.948Z,9.80
2023-03-22T03:29:13.474Z,9.80
2023-03-22T03:31:55.739Z,9.80
2023-03-22T03:34:27.118Z,9.80
2023-03-22T03:37:06.720Z,9.80
2023-03-22T03:39:38.767Z,9.80
2023-03-22T03:42:20.848Z,9.70
2023-03-22T03:44:51.465Z,9.80
2023-03-22T03:47:28.139Z,9.80
2023-03-22T03:49:56.773Z,9.80
2023-03-22T03:52:33.016Z,9.80
2023-03-22T03:55:01.712Z,9.80
2023-03-22T03:57:38.752Z,9.80
2023-03-22T04:00:09.494Z,9.70
2023-03-22T04:02:45.737Z,9.70
2023-03-22T04:05:27.717Z,9.70
2023-03-22T04:07:56.176Z,9.70
2023-03-22T04:10:25.126Z,9.70
2023-03-22T04:13:01.747Z,9.60
2023-03-22T04:15:30.496Z,9.60
2023-03-22T04:17:58.978Z,9.60
2023-03-22T04:20:35.126Z,9.60
2023-03-22T04:23:03.557Z,9.60
2023-03-22T04:25:40.837Z,9.60
2023-03-22T04:28:18.097Z,9.60
2023-03-22T04:30:51.291Z,9.60
2023-03-22T04:33:29.784Z,9.60
2023-03-22T04:36:04.752Z,9.60
2023-03-22T04:38:33.677Z,9.60
2023-03-22T04:41:08.811Z,9.60
2023-03-22T04:43:45.759Z,9.60
2023-03-22T04:46:15.348Z,9.60
2023-03-22T04:48:50.040Z,9.60
2023-03-22T04:51:25.756Z,9.60
2023-03-22T04:53:54.433Z,9.60
2023-03-22T04:56:29.778Z,9.60
2023-03-22T04:59:05.814Z,9.60
2023-03-22T05:01:35.696Z,9.60
2023-03-22T05:04:10.929Z,9.60
2023-03-22T05:06:46.609Z,9.60
2023-03-22T05:09:23.668Z,9.60
2023-03-22T05:11:59.123Z,9.70
2023-03-22T05:14:29.476Z,9.70
2023-03-22T05:16:58.604Z,9.70
2023-03-22T05:19:34.176Z,9.70
2023-03-22T05:22:02.812Z,9.70
2023-03-22T05:24:38.842Z,9.70
2023-03-22T05:27:13.858Z,9.70
2023-03-22T05:29:47.162Z,9.70
2023-03-22T05:32:24.805Z,9.60
2023-03-22T05:34:59.795Z,9.60
2023-03-22T05:37:30.315Z,9.60
2023-03-22T05:40:05.844Z,9.70
2023-03-22T05:42:41.514Z,9.70
2023-03-22T05:45:13.582Z,9.70
2023-03-22T05:47:48.885Z,9.80
2023-03-22T05:50:25.898Z,9.80
2023-03-22T05:52:54.360Z,9.80
2023-03-22T05:55:30.097Z,9.90
2023-03-22T05:58:04.856Z,9.90
2023-03-22T06:00:35.761Z,9.90
2023-03-22T06:03:11.923Z,9.90
2023-03-22T06:05:50.917Z,9.90
2023-03-22T06:08:26.705Z,9.90
2023-03-22T06:11:02.867Z,10.00
2023-03-22T06:13:31.779Z,10.00
2023-03-22T06:16:09.863Z,10.00
2023-03-22T06:18:45.166Z,10.00
2023-03-22T06:21:13.957Z,10.00
2023-03-22T06:23:49.921Z,10.00
2023-03-22T06:26:25.876Z,10.10
2023-03-22T06:28:54.448Z,10.10
2023-03-22T06:31:31.218Z,10.10
2023-03-22T06:34:06.987Z,10.10
2023-03-22T06:36:35.879Z,10.20
2023-03-22T06:39:12.321Z,10.20
2023-03-22T06:41:48.020Z,10.20
2023-03-22T06:44:17.273Z,10.20
2023-03-22T06:46:54.281Z,10.20
2023-03-22T06:49:30.336Z,10.20
2023-03-22T06:51:59.398Z,10.30
2023-03-22T06:54:34.928Z,10.30
2023-03-22T06:57:09.921Z,10.30
2023-03-22T06:59:38.651Z,10.40
2023-03-22T07:02:15.019Z,10.30
2023-03-22T07:04:50.579Z,10.40
2023-03-22T07:07:32.966Z,10.40
2023-03-22T07:10:08.216Z,10.40
2023-03-22T07:12:36.948Z,10.40
2023-03-22T07:15:13.164Z,10.40
2023-03-22T07:17:49.942Z,10.50
2023-03-22T07:20:18.797Z,10.60
2023-03-22T07:22:53.877Z,10.60
2023-03-22T07:25:29.030Z,10.70
2023-03-22T07:27:57.851Z,10.60
2023-03-22T07:30:35.356Z,10.60
2023-03-22T07:33:12.962Z,10.60
2023-03-22T07:35:41.806Z,10.60
2023-03-22T07:38:16.929Z,10.60
2023-03-22T07:40:52.024Z,10.60
2023-03-22T07:43:20.712Z,10.60
2023-03-22T07:45:56.937Z,10.60
2023-03-22T07:48:35.218Z,10.70
2023-03-22T07:51:03.859Z,10.70
2023-03-22T07:53:38.924Z,10.80
2023-03-22T07:56:08.550Z,10.90
2023-03-22T07:58:43.976Z,11.00
2023-03-22T08:01:18.970Z,11.10
2023-03-22T08:03:55.539Z,11.20
2023-03-22T08:06:38.973Z,11.30
2023-03-22T08:09:08.630Z,11.30
2023-03-22T08:11:45.947Z,11.40
2023-03-22T08:14:17.091Z,11.40
2023-03-22T08:16:55.028Z,11.50
2023-03-22T08:19:25.018Z,11.60
2023-03-22T08:22:00.061Z,11.70
2023-03-22T08:24:29.058Z,11.80
2023-03-22T08:27:04.098Z,11.80
2023-03-22T08:29:38.956Z,11.90
2023-03-22T08:32:07.544Z,12.00
2023-03-22T08:34:47.317Z,12.10
2023-03-22T08:37:16.212Z,12.00
2023-03-22T08:39:52.317Z,12.00
2023-03-22T08:42:27.918Z,12.00
2023-03-22T08:44:56.446Z,12.00
2023-03-22T08:47:31.307Z,12.00
2023-03-22T08:50:06.980Z,12.10
2023-03-22T08:52:36.122Z,12.10
2023-03-22T08:55:12.256Z,12.20
2023-03-22T08:57:48.045Z,12.30
2023-03-22T09:00:19.428Z,12.30
2023-03-22T09:02:55.083Z,12.30
2023-03-22T09:05:30.997Z,12.40
2023-03-22T09:08:06.145Z,12.50
2023-03-22T09:10:42.284Z,12.50
2023-03-22T09:13:13.377Z,12.50
2023-03-22T09:15:42.190Z,12.60
2023-03-22T09:18:17.039Z,12.80
2023-03-22T09:20:47.520Z,12.80
2023-03-22T09:23:23.373Z,12.90
2023-03-22T09:25:51.885Z,13.00
2023-03-22T09:28:20.919Z,13.20
2023-03-22T09:30:59.355Z,13.20
2023-03-22T09:33:27.922Z,13.20
2023-03-22T09:36:05.138Z,13.30
2023-03-22T09:38:42.172Z,13.20
2023-03-22T09:41:17.434Z,13.20
2023-03-22T09:43:58.193Z,13.20
2023-03-22T09:46:38.507Z,13.20
2023-03-22T09:49:14.441Z,13.10
2023-03-22T09:51:53.057Z,13.00
2023-03-22T09:54:30.889Z,13.00
2023-03-22T09:57:10.053Z,13.00
2023-03-22T09:59:45.708Z,13.00
2023-03-22T10:02:40.138Z,13.00
2023-03-22T10:05:25.752Z,13.20
2023-03-22T10:08:34.171Z,13.10
2023-03-22T10:11:09.088Z,13.00
2023-03-22T10:14:15.072Z,12.90
2023-03-22T10:16:52.076Z,12.90
2023-03-22T10:19:24.855Z,12.90
2023-03-22T10:22:03.071Z,12.90
2023-03-22T10:24:36.940Z,12.80
2023-03-22T10:27:20.072Z,12.70
2023-03-22T10:30:00.142Z,12.60
2023-03-22T10:32:45.242Z,12.60
2023-03-22T10:35:26.203Z,12.70
2023-03-22T10:38:00.024Z,12.50
2023-03-22T10:40:40.061Z,12.40
2023-03-22T10:43:16.849Z,12.30
2023-03-22T10:45:52.090Z,12.30
2023-03-22T10:48:29.303Z,12.20
2023-03-22T10:51:06.080Z,12.30
2023-03-22T10:53:49.361Z,12.10
2023-03-22T10:56:26.483Z,12.10
2023-03-22T10:59:07.274Z,12.10
2023-03-22T11:01:39.546Z,11.90
2023-03-22T11:04:16.174Z,11.90
2023-03-22T11:06:56.097Z,11.80
2023-03-22T11:09:32.444Z,11.70
2023-03-22T11:12:03.348Z,11.70
2023-03-22T11:14:42.133Z,11.70
2023-03-22T11:17:14.890Z,11.70
2023-03-22T11:19:59.474Z,11.80
2023-03-22T11:22:34.915Z,11.90
2023-03-22T11:25:11.126Z,12.00
2023-03-22T11:27:59.373Z,12.10
2023-03-22T11:30:30.323Z,12.30
2023-03-22T11:33:12.227Z,12.40
2023-03-22T11:35:41.228Z,12.40
2023-03-22T11:38:32.234Z,12.60
2023-03-22T11:41:03.570Z,12.60
2023-03-22T11:43:44.537Z,12.70
2023-03-22T11:46:20.206Z,12.70
2023-03-22T11:48:50.859Z,12.70
2023-03-22T11:51:36.444Z,12.80
2023-03-22T11:54:18.183Z,12.80
2023-03-22T11:56:50.860Z,12.80
2023-03-22T11:59:32.126Z,12.80
2023-03-22T12:02:06.599Z,12.80
2023-03-22T12:04:52.516Z,12.80
2023-03-22T12:07:24.776Z,12.80
2023-03-22T12:10:05.233Z,12.80
2023-03-22T12:12:38.564Z,12.80
2023-03-22T12:15:24.411Z,12.70
2023-03-22T12:17:59.976Z,12.70
2023-03-22T12:20:44.232Z,12.80
2023-03-22T12:23:17.082Z,12.80
2023-03-22T12:25:57.245Z,12.90
2023-03-22T12:28:34.732Z,12.90
2023-03-22T12:31:14.248Z,13.00
2023-03-22T12:33:55.175Z,13.00
2023-03-22T12:36:35.945Z,13.10
2023-03-22T12:39:15.458Z,13.20
2023-03-22T12:41:48.183Z,13.30
2023-03-22T12:44:27.239Z,13.30
2023-03-22T12:47:01.270Z,13.30
2023-03-22T12:49:40.230Z,13.30
2023-03-22T12:52:17.324Z,13.20
2023-03-22T12:54:55.231Z,13.10
2023-03-22T12:57:23.912Z,13.10
2023-03-22T13:00:01.270Z,13.10
2023-03-22T13:02:34.825Z,13.10
2023-03-22T13:05:11.230Z,13.20
2023-03-22T13:08:02.382Z,13.10
2023-03-22T13:11:05.285Z,13.10
2023-03-22T13:13:52.166Z,13.00
2023-03-22T13:16:31.357Z,13.00
2023-03-22T13:19:22.393Z,13.00
2023-03-22T13:21:58.313Z,12.90
2023-03-22T13:24:27.260Z,12.90
2023-03-22T13:26:57.083Z,12.90
2023-03-22T13:29:43.302Z,12.90
2023-03-22T13:32:31.107Z,12.90
2023-03-22T13:35:10.298Z,12.80
2023-03-22T13:37:47.927Z,12.90
2023-03-22T13:40:34.487Z,12.90
2023-03-22T13:43:15.227Z,12.90
2023-03-22T13:46:09.480Z,12.90
2023-03-22T13:48:51.354Z,12.90
2023-03-22T13:51:29.368Z,12.90
2023-03-22T13:54:10.339Z,12.90
2023-03-22T13:56:57.183Z,12.90
2023-03-22T13:59:38.633Z,12.80
2023-03-22T14:02:22.393Z,12.80
2023-03-22T14:05:01.275Z,12.90
2023-03-22T14:07:44.451Z,12.90
2023-03-22T14:10:26.276Z,12.90
2023-03-22T14:13:06.561Z,12.90
2023-03-22T14:15:40.429Z,12.90
2023-03-22T14:18:23.324Z,12.90
2023-03-22T14:20:56.135Z,12.90
